sensor_id;sensor_type;location;lat;lon;timestamp;P1;durP1;ratioP1;P2;durP2;ratioP2
29206;SDS011;16247;50.840;4.382;2022-08-19T00:00:06;28.60;;;22.63;;
29206;SDS011;16247;50.840;4.382;2022-08-19T00:02:34;25.10;;;21.75;;
29206;SDS011;16247;50.840;4.382;2022-08-19T00:05:00;26.27;;;23.35;;
29206;SDS011;16247;50.840;4.382;2022-08-19T00:07:26;28.98;;;22.60;;
29206;SDS011;16247;50.840;4.382;2022-08-19T00:09:52;29.55;;;24.17;;
29206;SDS011;16247;50.840;4.382;2022-08-19T00:12:19;28.92;;;24.00;;
29206;SDS011;16247;50.840;4.382;2022-08-19T00:14:45;31.98;;;26.73;;
29206;SDS011;16247;50.840;4.382;2022-08-19T00:17:11;36.75;;;28.10;;
29206;SDS011;16247;50.840;4.382;2022-08-19T00:19:37;39.40;;;29.58;;
29206;SDS011;16247;50.840;4.382;2022-08-19T00:22:04;37.67;;;31.33;;
29206;SDS011;16247;50.840;4.382;2022-08-19T00:24:30;45.42;;;34.38;;
29206;SDS011;16247;50.840;4.382;2022-08-19T00:26:57;49.20;;;36.35;;
29206;SDS011;16247;50.840;4.382;2022-08-19T00:29:23;49.35;;;35.15;;
29206;SDS011;16247;50.840;4.382;2022-08-19T00:31:50;47.70;;;35.13;;
29206;SDS011;16247;50.840;4.382;2022-08-19T00:34:21;53.38;;;38.55;;
29206;SDS011;16247;50.840;4.382;2022-08-19T00:36:47;51.92;;;37.03;;
29206;SDS011;16247;50.840;4.382;2022-08-19T00:39:14;59.88;;;42.22;;
29206;SDS011;16247;50.840;4.382;2022-08-19T00:41:42;61.08;;;42.60;;
29206;SDS011;16247;50.840;4.382;2022-08-19T00:44:13;61.57;;;42.47;;
29206;SDS011;16247;50.840;4.382;2022-08-19T00:46:43;60.45;;;43.45;;
29206;SDS011;16247;50.840;4.382;2022-08-19T00:51:48;62.03;;;42.60;;
29206;SDS011;16247;50.840;4.382;2022-08-19T00:54:18;66.43;;;45.00;;
29206;SDS011;16247;50.840;4.382;2022-08-19T00:56:46;66.38;;;45.72;;
29206;SDS011;16247;50.840;4.382;2022-08-19T00:59:14;64.55;;;44.88;;
29206;SDS011;16247;50.840;4.382;2022-08-19T01:01:41;61.33;;;43.70;;
29206;SDS011;16247;50.840;4.382;2022-08-19T01:04:08;67.88;;;46.13;;
29206;SDS011;16247;50.840;4.382;2022-08-19T01:06:35;60.90;;;42.50;;
29206;SDS011;16247;50.840;4.382;2022-08-19T01:09:03;60.83;;;43.00;;
29206;SDS011;16247;50.840;4.382;2022-08-19T01:11:30;60.55;;;40.75;;
29206;SDS011;16247;50.840;4.382;2022-08-19T01:14:00;63.20;;;41.38;;
29206;SDS011;16247;50.840;4.382;2022-08-19T01:16:26;67.75;;;42.85;;
29206;SDS011;16247;50.840;4.382;2022-08-19T01:18:53;53.70;;;39.38;;
29206;SDS011;16247;50.840;4.382;2022-08-19T01:23:48;50.03;;;36.25;;
29206;SDS011;16247;50.840;4.382;2022-08-19T01:26:15;50.83;;;36.25;;
29206;SDS011;16247;50.840;4.382;2022-08-19T01:28:44;50.55;;;37.50;;
29206;SDS011;16247;50.840;4.382;2022-08-19T01:31:16;49.27;;;35.90;;
29206;SDS011;16247;50.840;4.382;2022-08-19T01:33:43;47.13;;;35.28;;
29206;SDS011;16247;50.840;4.382;2022-08-19T01:38:40;48.63;;;34.10;;
29206;SDS011;16247;50.840;4.382;2022-08-19T01:41:08;47.35;;;32.13;;
29206;SDS011;16247;50.840;4.382;2022-08-19T01:43:35;41.10;;;30.88;;
29206;SDS011;16247;50.840;4.382;2022-08-19T01:46:01;42.25;;;30.05;;
29206;SDS011;16247;50.840;4.382;2022-08-19T01:48:32;40.60;;;29.90;;
29206;SDS011;16247;50.840;4.382;2022-08-19T01:51:02;38.33;;;28.90;;
29206;SDS011;16247;50.840;4.382;2022-08-19T01:53:27;35.83;;;27.17;;
29206;SDS011;16247;50.840;4.382;2022-08-19T01:55:53;42.72;;;28.77;;
29206;SDS011;16247;50.840;4.382;2022-08-19T01:58:21;37.85;;;27.50;;
29206;SDS011;16247;50.840;4.382;2022-08-19T02:00:51;37.65;;;26.85;;
29206;SDS011;16247;50.840;4.382;2022-08-19T02:03:17;35.15;;;27.75;;
29206;SDS011;16247;50.840;4.382;2022-08-19T02:05:43;34.78;;;25.98;;
29206;SDS011;16247;50.840;4.382;2022-08-19T02:08:09;36.88;;;28.02;;
29206;SDS011;16247;50.840;4.382;2022-08-19T02:10:38;35.72;;;26.92;;
29206;SDS011;16247;50.840;4.382;2022-08-19T02:13:07;30.30;;;23.10;;
29206;SDS011;16247;50.840;4.382;2022-08-19T02:15:33;30.75;;;23.80;;
29206;SDS011;16247;50.840;4.382;2022-08-19T02:17:58;28.13;;;22.13;;
29206;SDS011;16247;50.840;4.382;2022-08-19T02:20:24;30.38;;;22.20;;
29206;SDS011;16247;50.840;4.382;2022-08-19T02:22:49;24.48;;;20.27;;
29206;SDS011;16247;50.840;4.382;2022-08-19T02:25:15;29.40;;;20.90;;
29206;SDS011;16247;50.840;4.382;2022-08-19T02:27:42;26.92;;;22.02;;
29206;SDS011;16247;50.840;4.382;2022-08-19T02:30:11;31.33;;;24.85;;
29206;SDS011;16247;50.840;4.382;2022-08-19T02:32:40;33.22;;;26.67;;
29206;SDS011;16247;50.840;4.382;2022-08-19T02:35:07;35.75;;;26.65;;
29206;SDS011;16247;50.840;4.382;2022-08-19T02:37:33;31.20;;;24.63;;
29206;SDS011;16247;50.840;4.382;2022-08-19T02:40:17;33.00;;;23.83;;
29206;SDS011;16247;50.840;4.382;2022-08-19T02:42:44;32.45;;;23.63;;
29206;SDS011;16247;50.840;4.382;2022-08-19T02:45:10;32.30;;;22.67;;
29206;SDS011;16247;50.840;4.382;2022-08-19T02:47:37;31.15;;;22.75;;
29206;SDS011;16247;50.840;4.382;2022-08-19T02:50:03;32.90;;;23.83;;
29206;SDS011;16247;50.840;4.382;2022-08-19T02:52:31;36.20;;;23.92;;
29206;SDS011;16247;50.840;4.382;2022-08-19T02:54:58;34.47;;;24.20;;
29206;SDS011;16247;50.840;4.382;2022-08-19T02:57:24;33.70;;;25.10;;
29206;SDS011;16247;50.840;4.382;2022-08-19T02:59:49;35.70;;;25.08;;
29206;SDS011;16247;50.840;4.382;2022-08-19T03:02:16;32.90;;;23.13;;
29206;SDS011;16247;50.840;4.382;2022-08-19T03:04:42;38.53;;;23.80;;
29206;SDS011;16247;50.840;4.382;2022-08-19T03:07:08;31.08;;;22.80;;
29206;SDS011;16247;50.840;4.382;2022-08-19T03:09:37;29.48;;;21.17;;
29206;SDS011;16247;50.840;4.382;2022-08-19T03:12:03;28.73;;;21.08;;
29206;SDS011;16247;50.840;4.382;2022-08-19T03:14:30;34.78;;;21.65;;
29206;SDS011;16247;50.840;4.382;2022-08-19T03:16:57;29.55;;;20.50;;
29206;SDS011;16247;50.840;4.382;2022-08-19T03:19:23;28.92;;;21.75;;
29206;SDS011;16247;50.840;4.382;2022-08-19T03:21:49;32.63;;;22.25;;
29206;SDS011;16247;50.840;4.382;2022-08-19T03:24:16;37.35;;;22.85;;
29206;SDS011;16247;50.840;4.382;2022-08-19T03:26:44;34.92;;;24.75;;
29206;SDS011;16247;50.840;4.382;2022-08-19T03:29:13;31.05;;;22.55;;
29206;SDS011;16247;50.840;4.382;2022-08-19T03:31:40;31.70;;;21.73;;
29206;SDS011;16247;50.840;4.382;2022-08-19T03:34:08;31.90;;;22.00;;
29206;SDS011;16247;50.840;4.382;2022-08-19T03:36:36;30.48;;;21.17;;
29206;SDS011;16247;50.840;4.382;2022-08-19T03:39:03;29.65;;;19.77;;
29206;SDS011;16247;50.840;4.382;2022-08-19T03:41:30;31.92;;;20.52;;
29206;SDS011;16247;50.840;4.382;2022-08-19T03:43:58;29.98;;;20.63;;
29206;SDS011;16247;50.840;4.382;2022-08-19T03:46:25;27.73;;;20.23;;
29206;SDS011;16247;50.840;4.382;2022-08-19T03:48:55;33.10;;;20.55;;
29206;SDS011;16247;50.840;4.382;2022-08-19T03:53:52;31.53;;;22.27;;
29206;SDS011;16247;50.840;4.382;2022-08-19T03:58:45;38.10;;;23.50;;
29206;SDS011;16247;50.840;4.382;2022-08-19T04:01:12;31.92;;;22.38;;
29206;SDS011;16247;50.840;4.382;2022-08-19T04:03:44;39.00;;;23.20;;
29206;SDS011;16247;50.840;4.382;2022-08-19T04:08:40;32.67;;;22.08;;
29206;SDS011;16247;50.840;4.382;2022-08-19T04:11:08;35.42;;;24.13;;
29206;SDS011;16247;50.840;4.382;2022-08-19T04:13:37;34.40;;;22.48;;
29206;SDS011;16247;50.840;4.382;2022-08-19T04:16:03;33.65;;;22.60;;
29206;SDS011;16247;50.840;4.382;2022-08-19T04:18:29;32.97;;;21.77;;
29206;SDS011;16247;50.840;4.382;2022-08-19T04:20:56;31.23;;;21.45;;
29206;SDS011;16247;50.840;4.382;2022-08-19T04:23:22;32.88;;;21.67;;
29206;SDS011;16247;50.840;4.382;2022-08-19T04:25:47;31.20;;;19.75;;
29206;SDS011;16247;50.840;4.382;2022-08-19T04:28:14;30.85;;;20.67;;
29206;SDS011;16247;50.840;4.382;2022-08-19T04:30:41;26.48;;;20.33;;
29206;SDS011;16247;50.840;4.382;2022-08-19T04:33:12;28.92;;;19.70;;
29206;SDS011;16247;50.840;4.382;2022-08-19T04:35:41;32.80;;;20.42;;
29206;SDS011;16247;50.840;4.382;2022-08-19T04:38:08;33.35;;;19.38;;
29206;SDS011;16247;50.840;4.382;2022-08-19T04:40:39;29.45;;;18.60;;
29206;SDS011;16247;50.840;4.382;2022-08-19T04:43:25;30.05;;;18.90;;
29206;SDS011;16247;50.840;4.382;2022-08-19T04:45:51;27.17;;;18.05;;
29206;SDS011;16247;50.840;4.382;2022-08-19T04:48:18;30.05;;;17.10;;
29206;SDS011;16247;50.840;4.382;2022-08-19T04:50:51;32.88;;;18.25;;
29206;SDS011;16247;50.840;4.382;2022-08-19T04:53:22;29.48;;;17.15;;
29206;SDS011;16247;50.840;4.382;2022-08-19T04:55:49;26.63;;;16.58;;
29206;SDS011;16247;50.840;4.382;2022-08-19T04:58:14;25.73;;;16.23;;
29206;SDS011;16247;50.840;4.382;2022-08-19T05:00:41;30.05;;;16.77;;
29206;SDS011;16247;50.840;4.382;2022-08-19T05:03:07;28.02;;;17.13;;
29206;SDS011;16247;50.840;4.382;2022-08-19T05:05:33;26.02;;;17.45;;
29206;SDS011;16247;50.840;4.382;2022-08-19T05:07:58;26.80;;;16.30;;
29206;SDS011;16247;50.840;4.382;2022-08-19T05:10:24;28.95;;;15.77;;
29206;SDS011;16247;50.840;4.382;2022-08-19T05:12:50;24.83;;;16.08;;
29206;SDS011;16247;50.840;4.382;2022-08-19T05:15:15;24.17;;;15.00;;
29206;SDS011;16247;50.840;4.382;2022-08-19T05:17:41;23.65;;;13.93;;
29206;SDS011;16247;50.840;4.382;2022-08-19T05:20:26;27.13;;;15.32;;
29206;SDS011;16247;50.840;4.382;2022-08-19T05:23:11;21.92;;;13.65;;
29206;SDS011;16247;50.840;4.382;2022-08-19T05:25:42;27.27;;;14.90;;
29206;SDS011;16247;50.840;4.382;2022-08-19T05:28:07;25.80;;;14.63;;
29206;SDS011;16247;50.840;4.382;2022-08-19T05:30:33;24.05;;;15.60;;
29206;SDS011;16247;50.840;4.382;2022-08-19T05:32:59;26.58;;;16.52;;
29206;SDS011;16247;50.840;4.382;2022-08-19T05:35:25;29.60;;;16.20;;
29206;SDS011;16247;50.840;4.382;2022-08-19T05:37:50;30.25;;;18.60;;
29206;SDS011;16247;50.840;4.382;2022-08-19T05:40:17;29.35;;;17.20;;
29206;SDS011;16247;50.840;4.382;2022-08-19T05:42:43;30.35;;;17.50;;
29206;SDS011;16247;50.840;4.382;2022-08-19T05:45:09;31.35;;;17.77;;
29206;SDS011;16247;50.840;4.382;2022-08-19T05:47:35;31.05;;;19.48;;
29206;SDS011;16247;50.840;4.382;2022-08-19T05:50:01;30.50;;;17.63;;
29206;SDS011;16247;50.840;4.382;2022-08-19T05:52:27;30.05;;;17.80;;
29206;SDS011;16247;50.840;4.382;2022-08-19T05:54:53;28.52;;;17.08;;
29206;SDS011;16247;50.840;4.382;2022-08-19T05:57:20;28.90;;;17.13;;
29206;SDS011;16247;50.840;4.382;2022-08-19T05:59:46;23.52;;;16.05;;
29206;SDS011;16247;50.840;4.382;2022-08-19T06:02:13;28.55;;;16.80;;
29206;SDS011;16247;50.840;4.382;2022-08-19T06:04:39;26.58;;;16.05;;
29206;SDS011;16247;50.840;4.382;2022-08-19T06:07:07;21.17;;;14.05;;
29206;SDS011;16247;50.840;4.382;2022-08-19T06:09:33;23.08;;;12.65;;
29206;SDS011;16247;50.840;4.382;2022-08-19T06:12:00;24.23;;;13.52;;
29206;SDS011;16247;50.840;4.382;2022-08-19T06:14:30;20.27;;;13.30;;
29206;SDS011;16247;50.840;4.382;2022-08-19T06:16:59;18.88;;;11.65;;
29206;SDS011;16247;50.840;4.382;2022-08-19T06:19:27;20.88;;;11.73;;
29206;SDS011;16247;50.840;4.382;2022-08-19T06:21:57;21.65;;;11.10;;
29206;SDS011;16247;50.840;4.382;2022-08-19T06:24:26;19.25;;;10.80;;
29206;SDS011;16247;50.840;4.382;2022-08-19T06:26:54;22.63;;;10.95;;
29206;SDS011;16247;50.840;4.382;2022-08-19T06:29:23;17.80;;;10.40;;
29206;SDS011;16247;50.840;4.382;2022-08-19T06:31:51;17.38;;;10.40;;
29206;SDS011;16247;50.840;4.382;2022-08-19T06:34:19;28.33;;;12.63;;
29206;SDS011;16247;50.840;4.382;2022-08-19T06:36:47;18.35;;;9.95;;
29206;SDS011;16247;50.840;4.382;2022-08-19T06:39:17;17.13;;;10.35;;
29206;SDS011;16247;50.840;4.382;2022-08-19T06:41:49;18.50;;;9.45;;
29206;SDS011;16247;50.840;4.382;2022-08-19T06:44:17;13.23;;;9.43;;
29206;SDS011;16247;50.840;4.382;2022-08-19T06:46:44;16.50;;;8.85;;
29206;SDS011;16247;50.840;4.382;2022-08-19T06:49:10;19.17;;;9.18;;
29206;SDS011;16247;50.840;4.382;2022-08-19T06:56:32;20.38;;;9.95;;
29206;SDS011;16247;50.840;4.382;2022-08-19T06:59:02;17.50;;;9.98;;
29206;SDS011;16247;50.840;4.382;2022-08-19T07:01:29;15.90;;;9.52;;
29206;SDS011;16247;50.840;4.382;2022-08-19T07:03:55;15.85;;;9.63;;
29206;SDS011;16247;50.840;4.382;2022-08-19T07:06:22;17.92;;;9.57;;
29206;SDS011;16247;50.840;4.382;2022-08-19T07:08:47;15.32;;;9.82;;
29206;SDS011;16247;50.840;4.382;2022-08-19T07:11:14;14.45;;;9.82;;
29206;SDS011;16247;50.840;4.382;2022-08-19T07:13:43;14.40;;;9.20;;
29206;SDS011;16247;50.840;4.382;2022-08-19T07:16:10;16.60;;;10.13;;
29206;SDS011;16247;50.840;4.382;2022-08-19T07:18:38;14.93;;;9.55;;
29206;SDS011;16247;50.840;4.382;2022-08-19T07:23:30;16.60;;;9.77;;
29206;SDS011;16247;50.840;4.382;2022-08-19T07:25:56;20.23;;;9.35;;
29206;SDS011;16247;50.840;4.382;2022-08-19T07:28:23;17.17;;;10.35;;
29206;SDS011;16247;50.840;4.382;2022-08-19T07:30:49;18.73;;;10.57;;
29206;SDS011;16247;50.840;4.382;2022-08-19T07:33:16;16.48;;;9.43;;
29206;SDS011;16247;50.840;4.382;2022-08-19T07:35:44;14.38;;;8.73;;
29206;SDS011;16247;50.840;4.382;2022-08-19T07:38:09;16.92;;;8.48;;
29206;SDS011;16247;50.840;4.382;2022-08-19T07:40:35;16.08;;;8.73;;
29206;SDS011;16247;50.840;4.382;2022-08-19T07:43:01;11.35;;;8.07;;
29206;SDS011;16247;50.840;4.382;2022-08-19T07:45:27;11.95;;;7.93;;
29206;SDS011;16247;50.840;4.382;2022-08-19T07:47:53;18.65;;;8.38;;
29206;SDS011;16247;50.840;4.382;2022-08-19T07:50:21;11.68;;;7.65;;
29206;SDS011;16247;50.840;4.382;2022-08-19T07:52:47;14.18;;;8.27;;
29206;SDS011;16247;50.840;4.382;2022-08-19T07:55:17;13.85;;;8.18;;
29206;SDS011;16247;50.840;4.382;2022-08-19T07:57:45;11.55;;;7.53;;
29206;SDS011;16247;50.840;4.382;2022-08-19T08:00:12;15.38;;;8.43;;
29206;SDS011;16247;50.840;4.382;2022-08-19T08:02:38;14.53;;;9.20;;
29206;SDS011;16247;50.840;4.382;2022-08-19T08:05:04;17.08;;;9.85;;
29206;SDS011;16247;50.840;4.382;2022-08-19T08:07:49;15.55;;;8.60;;
29206;SDS011;16247;50.840;4.382;2022-08-19T08:10:32;14.77;;;8.15;;
29206;SDS011;16247;50.840;4.382;2022-08-19T08:12:58;12.48;;;8.80;;
29206;SDS011;16247;50.840;4.382;2022-08-19T08:15:24;11.38;;;7.70;;
29206;SDS011;16247;50.840;4.382;2022-08-19T08:17:50;11.35;;;7.50;;
29206;SDS011;16247;50.840;4.382;2022-08-19T08:20:17;11.45;;;7.13;;
29206;SDS011;16247;50.840;4.382;2022-08-19T08:22:45;9.85;;;6.82;;
29206;SDS011;16247;50.840;4.382;2022-08-19T08:25:30;10.57;;;6.70;;
29206;SDS011;16247;50.840;4.382;2022-08-19T08:27:56;12.45;;;8.07;;
29206;SDS011;16247;50.840;4.382;2022-08-19T08:30:27;12.20;;;7.00;;
29206;SDS011;16247;50.840;4.382;2022-08-19T08:32:54;11.25;;;7.28;;
29206;SDS011;16247;50.840;4.382;2022-08-19T08:35:21;9.90;;;7.03;;
29206;SDS011;16247;50.840;4.382;2022-08-19T08:37:48;9.32;;;7.10;;
29206;SDS011;16247;50.840;4.382;2022-08-19T08:40:19;12.45;;;7.65;;
29206;SDS011;16247;50.840;4.382;2022-08-19T08:42:57;9.50;;;6.25;;
29206;SDS011;16247;50.840;4.382;2022-08-19T08:45:25;8.98;;;6.93;;
29206;SDS011;16247;50.840;4.382;2022-08-19T08:47:53;10.60;;;6.57;;
29206;SDS011;16247;50.840;4.382;2022-08-19T08:50:27;7.72;;;6.28;;
29206;SDS011;16247;50.840;4.382;2022-08-19T08:53:00;9.77;;;6.35;;
29206;SDS011;16247;50.840;4.382;2022-08-19T08:55:29;14.32;;;6.18;;
29206;SDS011;16247;50.840;4.382;2022-08-19T08:57:59;14.80;;;6.93;;
29206;SDS011;16247;50.840;4.382;2022-08-19T09:00:30;13.65;;;6.82;;
29206;SDS011;16247;50.840;4.382;2022-08-19T09:03:02;11.50;;;7.05;;
29206;SDS011;16247;50.840;4.382;2022-08-19T09:08:28;12.15;;;5.70;;
29206;SDS011;16247;50.840;4.382;2022-08-19T09:10:56;12.65;;;6.25;;
29206;SDS011;16247;50.840;4.382;2022-08-19T09:16:07;10.35;;;6.72;;
29206;SDS011;16247;50.840;4.382;2022-08-19T09:18:45;11.68;;;6.32;;
29206;SDS011;16247;50.840;4.382;2022-08-19T09:21:19;11.05;;;5.90;;
29206;SDS011;16247;50.840;4.382;2022-08-19T09:23:48;10.98;;;6.05;;
29206;SDS011;16247;50.840;4.382;2022-08-19T09:26:15;9.57;;;6.67;;
29206;SDS011;16247;50.840;4.382;2022-08-19T09:28:43;11.70;;;6.07;;
29206;SDS011;16247;50.840;4.382;2022-08-19T09:31:10;10.05;;;6.10;;
29206;SDS011;16247;50.840;4.382;2022-08-19T09:33:37;12.02;;;6.30;;
29206;SDS011;16247;50.840;4.382;2022-08-19T09:36:04;9.32;;;6.32;;
29206;SDS011;16247;50.840;4.382;2022-08-19T09:38:32;11.32;;;5.97;;
29206;SDS011;16247;50.840;4.382;2022-08-19T09:41:06;15.30;;;6.72;;
29206;SDS011;16247;50.840;4.382;2022-08-19T09:46:03;13.88;;;6.93;;
29206;SDS011;16247;50.840;4.382;2022-08-19T09:48:31;9.18;;;5.78;;
29206;SDS011;16247;50.840;4.382;2022-08-19T09:53:34;10.68;;;5.47;;
29206;SDS011;16247;50.840;4.382;2022-08-19T09:56:01;9.80;;;5.68;;
29206;SDS011;16247;50.840;4.382;2022-08-19T09:58:27;8.95;;;4.95;;
29206;SDS011;16247;50.840;4.382;2022-08-19T10:00:55;10.27;;;5.85;;
29206;SDS011;16247;50.840;4.382;2022-08-19T10:03:23;8.67;;;5.87;;
29206;SDS011;16247;50.840;4.382;2022-08-19T10:05:49;8.48;;;5.40;;
29206;SDS011;16247;50.840;4.382;2022-08-19T10:08:19;7.57;;;4.45;;
29206;SDS011;16247;50.840;4.382;2022-08-19T10:10:50;7.85;;;5.22;;
29206;SDS011;16247;50.840;4.382;2022-08-19T10:13:17;8.55;;;5.03;;
29206;SDS011;16247;50.840;4.382;2022-08-19T10:15:48;9.07;;;4.30;;
29206;SDS011;16247;50.840;4.382;2022-08-19T10:18:15;6.10;;;4.33;;
29206;SDS011;16247;50.840;4.382;2022-08-19T10:20:44;9.07;;;4.88;;
29206;SDS011;16247;50.840;4.382;2022-08-19T10:23:11;7.72;;;4.80;;
29206;SDS011;16247;50.840;4.382;2022-08-19T10:25:39;8.13;;;5.13;;
29206;SDS011;16247;50.840;4.382;2022-08-19T10:28:06;8.38;;;5.93;;
29206;SDS011;16247;50.840;4.382;2022-08-19T10:30:32;9.40;;;5.43;;
29206;SDS011;16247;50.840;4.382;2022-08-19T10:33:00;10.75;;;6.63;;
29206;SDS011;16247;50.840;4.382;2022-08-19T10:35:25;11.05;;;6.68;;
29206;SDS011;16247;50.840;4.382;2022-08-19T10:37:54;15.07;;;10.10;;
29206;SDS011;16247;50.840;4.382;2022-08-19T10:40:24;10.02;;;6.85;;
29206;SDS011;16247;50.840;4.382;2022-08-19T10:42:53;9.60;;;7.05;;
29206;SDS011;16247;50.840;4.382;2022-08-19T10:45:22;8.63;;;6.77;;
29206;SDS011;16247;50.840;4.382;2022-08-19T10:47:50;11.02;;;6.88;;
29206;SDS011;16247;50.840;4.382;2022-08-19T10:50:19;11.98;;;7.22;;
29206;SDS011;16247;50.840;4.382;2022-08-19T10:53:07;11.27;;;7.78;;
29206;SDS011;16247;50.840;4.382;2022-08-19T10:55:34;11.32;;;7.95;;
29206;SDS011;16247;50.840;4.382;2022-08-19T10:58:19;12.68;;;8.43;;
29206;SDS011;16247;50.840;4.382;2022-08-19T11:00:51;11.35;;;8.80;;
29206;SDS011;16247;50.840;4.382;2022-08-19T11:03:23;9.95;;;7.65;;
29206;SDS011;16247;50.840;4.382;2022-08-19T11:06:03;11.57;;;7.75;;
29206;SDS011;16247;50.840;4.382;2022-08-19T11:08:32;10.80;;;8.00;;
29206;SDS011;16247;50.840;4.382;2022-08-19T11:11:00;8.57;;;7.50;;
29206;SDS011;16247;50.840;4.382;2022-08-19T11:13:28;10.48;;;8.68;;
29206;SDS011;16247;50.840;4.382;2022-08-19T11:16:07;11.27;;;7.80;;
29206;SDS011;16247;50.840;4.382;2022-08-19T11:18:37;8.32;;;6.03;;
29206;SDS011;16247;50.840;4.382;2022-08-19T11:21:09;8.90;;;6.13;;
29206;SDS011;16247;50.840;4.382;2022-08-19T11:23:39;9.65;;;6.72;;
29206;SDS011;16247;50.840;4.382;2022-08-19T11:26:05;8.68;;;7.50;;
29206;SDS011;16247;50.840;4.382;2022-08-19T11:28:31;11.68;;;8.38;;
29206;SDS011;16247;50.840;4.382;2022-08-19T11:30:57;14.95;;;8.85;;
29206;SDS011;16247;50.840;4.382;2022-08-19T11:33:22;13.02;;;9.90;;
29206;SDS011;16247;50.840;4.382;2022-08-19T11:35:48;15.27;;;10.23;;
29206;SDS011;16247;50.840;4.382;2022-08-19T11:38:14;12.95;;;9.77;;
29206;SDS011;16247;50.840;4.382;2022-08-19T11:40:40;11.45;;;9.05;;
29206;SDS011;16247;50.840;4.382;2022-08-19T11:43:07;12.13;;;9.67;;
29206;SDS011;16247;50.840;4.382;2022-08-19T11:45:34;12.57;;;9.98;;
29206;SDS011;16247;50.840;4.382;2022-08-19T11:48:01;13.98;;;9.35;;
29206;SDS011;16247;50.840;4.382;2022-08-19T11:50:27;14.00;;;9.48;;
29206;SDS011;16247;50.840;4.382;2022-08-19T11:52:54;13.35;;;9.48;;
29206;SDS011;16247;50.840;4.382;2022-08-19T11:55:21;15.20;;;9.25;;
29206;SDS011;16247;50.840;4.382;2022-08-19T11:57:49;12.10;;;9.30;;
29206;SDS011;16247;50.840;4.382;2022-08-19T12:00:15;13.93;;;9.10;;
29206;SDS011;16247;50.840;4.382;2022-08-19T12:02:41;14.38;;;7.97;;
29206;SDS011;16247;50.840;4.382;2022-08-19T12:05:07;11.50;;;7.63;;
29206;SDS011;16247;50.840;4.382;2022-08-19T12:07:33;10.77;;;8.10;;
29206;SDS011;16247;50.840;4.382;2022-08-19T12:10:00;10.35;;;7.20;;
29206;SDS011;16247;50.840;4.382;2022-08-19T12:12:27;12.02;;;7.10;;
29206;SDS011;16247;50.840;4.382;2022-08-19T12:14:53;8.88;;;6.45;;
29206;SDS011;16247;50.840;4.382;2022-08-19T12:17:28;7.93;;;6.40;;
29206;SDS011;16247;50.840;4.382;2022-08-19T12:19:56;8.93;;;6.93;;
29206;SDS011;16247;50.840;4.382;2022-08-19T12:22:23;10.27;;;6.30;;
29206;SDS011;16247;50.840;4.382;2022-08-19T12:24:49;5.47;;;4.90;;
29206;SDS011;16247;50.840;4.382;2022-08-19T12:27:17;10.75;;;5.65;;
29206;SDS011;16247;50.840;4.382;2022-08-19T12:29:43;9.13;;;5.63;;
29206;SDS011;16247;50.840;4.382;2022-08-19T12:32:09;6.35;;;4.20;;
29206;SDS011;16247;50.840;4.382;2022-08-19T12:34:36;5.95;;;4.50;;
29206;SDS011;16247;50.840;4.382;2022-08-19T12:37:03;7.30;;;4.78;;
29206;SDS011;16247;50.840;4.382;2022-08-19T12:39:33;7.53;;;4.40;;
29206;SDS011;16247;50.840;4.382;2022-08-19T12:42:04;8.20;;;4.60;;
29206;SDS011;16247;50.840;4.382;2022-08-19T12:44:30;4.47;;;3.42;;
29206;SDS011;16247;50.840;4.382;2022-08-19T12:46:57;6.18;;;3.47;;
29206;SDS011;16247;50.840;4.382;2022-08-19T12:49:23;5.93;;;4.00;;
29206;SDS011;16247;50.840;4.382;2022-08-19T12:51:49;7.60;;;3.10;;
29206;SDS011;16247;50.840;4.382;2022-08-19T12:54:15;7.70;;;3.83;;
29206;SDS011;16247;50.840;4.382;2022-08-19T12:56:42;5.25;;;3.08;;
29206;SDS011;16247;50.840;4.382;2022-08-19T12:59:08;6.47;;;3.85;;
29206;SDS011;16247;50.840;4.382;2022-08-19T13:01:36;3.65;;;3.35;;
29206;SDS011;16247;50.840;4.382;2022-08-19T13:04:02;4.03;;;3.13;;
29206;SDS011;16247;50.840;4.382;2022-08-19T13:06:28;8.07;;;3.22;;
29206;SDS011;16247;50.840;4.382;2022-08-19T13:08:54;5.25;;;3.00;;
29206;SDS011;16247;50.840;4.382;2022-08-19T13:11:20;4.35;;;3.17;;
29206;SDS011;16247;50.840;4.382;2022-08-19T13:13:49;4.95;;;2.83;;
29206;SDS011;16247;50.840;4.382;2022-08-19T13:16:17;7.82;;;3.50;;
29206;SDS011;16247;50.840;4.382;2022-08-19T13:21:17;5.97;;;2.95;;
29206;SDS011;16247;50.840;4.382;2022-08-19T13:23:47;4.35;;;2.88;;
29206;SDS011;16247;50.840;4.382;2022-08-19T13:26:15;5.03;;;2.70;;
29206;SDS011;16247;50.840;4.382;2022-08-19T13:28:41;3.72;;;2.38;;
29206;SDS011;16247;50.840;4.382;2022-08-19T13:31:27;3.67;;;2.20;;
29206;SDS011;16247;50.840;4.382;2022-08-19T13:34:13;2.70;;;2.25;;
29206;SDS011;16247;50.840;4.382;2022-08-19T13:36:40;4.30;;;2.20;;
29206;SDS011;16247;50.840;4.382;2022-08-19T13:39:06;6.18;;;2.20;;
29206;SDS011;16247;50.840;4.382;2022-08-19T13:41:33;6.22;;;2.85;;
29206;SDS011;16247;50.840;4.382;2022-08-19T13:44:00;2.45;;;2.22;;
29206;SDS011;16247;50.840;4.382;2022-08-19T13:46:26;3.97;;;2.00;;
29206;SDS011;16247;50.840;4.382;2022-08-19T13:48:54;3.50;;;2.67;;
29206;SDS011;16247;50.840;4.382;2022-08-19T13:51:19;3.13;;;2.55;;
29206;SDS011;16247;50.840;4.382;2022-08-19T13:53:45;3.67;;;2.22;;
29206;SDS011;16247;50.840;4.382;2022-08-19T13:56:15;4.97;;;2.78;;
29206;SDS011;16247;50.840;4.382;2022-08-19T13:58:44;3.35;;;2.25;;
29206;SDS011;16247;50.840;4.382;2022-08-19T14:01:10;7.10;;;2.47;;
29206;SDS011;16247;50.840;4.382;2022-08-19T14:03:36;5.47;;;2.50;;
29206;SDS011;16247;50.840;4.382;2022-08-19T14:06:02;4.38;;;2.30;;
29206;SDS011;16247;50.840;4.382;2022-08-19T14:08:28;2.67;;;1.60;;
29206;SDS011;16247;50.840;4.382;2022-08-19T14:10:58;4.22;;;2.20;;
29206;SDS011;16247;50.840;4.382;2022-08-19T14:13:24;2.95;;;2.15;;
29206;SDS011;16247;50.840;4.382;2022-08-19T14:15:50;4.47;;;2.25;;
29206;SDS011;16247;50.840;4.382;2022-08-19T14:18:17;4.50;;;2.33;;
29206;SDS011;16247;50.840;4.382;2022-08-19T14:20:43;4.40;;;2.13;;
29206;SDS011;16247;50.840;4.382;2022-08-19T14:23:10;3.17;;;2.45;;
29206;SDS011;16247;50.840;4.382;2022-08-19T14:25:37;3.78;;;2.50;;
29206;SDS011;16247;50.840;4.382;2022-08-19T14:28:03;5.90;;;2.78;;
29206;SDS011;16247;50.840;4.382;2022-08-19T14:30:30;4.72;;;2.30;;
29206;SDS011;16247;50.840;4.382;2022-08-19T14:32:57;4.50;;;2.63;;
29206;SDS011;16247;50.840;4.382;2022-08-19T14:35:26;6.90;;;2.47;;
29206;SDS011;16247;50.840;4.382;2022-08-19T14:37:53;10.20;;;2.25;;
29206;SDS011;16247;50.840;4.382;2022-08-19T14:40:19;4.63;;;2.10;;
29206;SDS011;16247;50.840;4.382;2022-08-19T14:42:46;5.70;;;2.08;;
29206;SDS011;16247;50.840;4.382;2022-08-19T14:45:14;2.92;;;1.70;;
29206;SDS011;16247;50.840;4.382;2022-08-19T14:47:39;4.13;;;1.65;;
29206;SDS011;16247;50.840;4.382;2022-08-19T14:50:06;2.55;;;1.60;;
29206;SDS011;16247;50.840;4.382;2022-08-19T14:52:33;4.70;;;1.40;;
29206;SDS011;16247;50.840;4.382;2022-08-19T14:54:59;0.85;;;0.85;;
29206;SDS011;16247;50.840;4.382;2022-08-19T14:57:24;3.47;;;1.23;;
29206;SDS011;16247;50.840;4.382;2022-08-19T14:59:50;2.45;;;1.20;;
29206;SDS011;16247;50.840;4.382;2022-08-19T15:02:17;1.70;;;1.10;;
29206;SDS011;16247;50.840;4.382;2022-08-19T15:04:42;2.13;;;1.42;;
29206;SDS011;16247;50.840;4.382;2022-08-19T15:07:09;1.42;;;1.30;;
29206;SDS011;16247;50.840;4.382;2022-08-19T15:09:34;2.63;;;1.73;;
29206;SDS011;16247;50.840;4.382;2022-08-19T15:12:00;1.70;;;1.60;;